Airfield :
LOGIN :

Register | Disclaimer

   EN    FR    IT 

 










Legend :    VFR   Marginal VFR   IFR   Intensive IFR   Very Intensive IFR
Visi :
Ceiling :
>= 8 km
>= 3000ft
5 to 8 km
1000 to 3000 ft
1500m to 5 km
500 to 1000 ft
800 to 1500m
200 to 500 ft
< 800m
< 200 ft
Symbols :   Thunderstorms  Fog  Heavy snow  Heavy precipitations  Wind > 20 kt
SIGMETs :     Misc.  Thunderstorms  Icing  Turbulence  Mountain Waves  Volcanic Ashes







- Airport Elevation : 1197 ft
- IATA code : SPM


ETAD - Spangdahlem Ab

CURRENT METAR :
  • 230001Z AUTO 23007KT 9999 -RA BKN009 OVC031 07/05 A3005 RMK AO2 RAB01 CIG 009V031 SLP175 TSNO $

EXPIRED METARs :
  • 222356Z AUTO 23005KT 9999 SCT010 BKN031 06/05 A3006 RMK AO2 SLP178 60000 T00630051 10074 20062 52006 TSNO $
  • 222341Z AUTO 23005KT 9999 BKN030 BKN040 06/05 A3005 RMK AO2 SLP175 TSNO $
  • 222326Z AUTO 23006KT 9999 FEW028 SCT034 BKN044 07/05 A3005 RMK AO2 SLP175 TSNO $
  • 222321Z AUTO 23005KT 9999 FEW018 SCT029 BKN038 OVC048 07/05 A3005 RMK AO2 SLP175 TSNO $
  • 222301Z AUTO 24006KT 9999 SCT017 BKN036 OVC047 07/05 A3005 RMK AO2 SLP175 TSNO $
  • 222251Z AUTO 24004KT 9999 BKN017 OVC038 07/05 A3005 RMK AO2 CIG 017V038 BKN V SCT SLP175 TSNO $
  • 222236Z AUTO 24005KT 9999 SCT017 BKN031 OVC040 07/05 A3005 RMK AO2 SLP175 TSNO $
  • 222211Z AUTO 24007KT 9999 SCT030 OVC040 07/05 A3005 RMK AO2 SLP175 TSNO $
  • 222156Z AUTO 25007KT 9999 SCT017 SCT029 BKN038 07/05 A3005 RMK AO2 SLP175 T00690054 TSNO $
  • 222151Z AUTO 24007KT 9999 SCT017 BKN029 BKN038 07/05 A3004 RMK AO2 CIG 017V029 SLP171 TSNO $
  • 222116Z AUTO 25007KT 9999 BKN018 OVC049 07/05 A3004 RMK AO2 SLP171 TSNO $

TAF AMD TAF ETAD
Valid from the 22 at 17:00 until the 23 at 17:00 UTC


221746Z 2217/2317 24012KT 8000 -SHRA BKN020 OVC030 620507 QNH2995INS
TEMPO 2217/2220 BKN012
BECMG 2219/2220 27012KT 9999 NSW BKN017 OVC030 620507 QNH3000INS
TEMPO 2220/2224 8000 -SHRA BKN012
BECMG 2300/2301 27009KT 9999 BKN014 OVC030 620507 QNH3005INS
TEMPO 2305/2311 BKN016
BECMG 2311/2312 27009KT 9999 BKN016 OVC030 620507 QNH3013INS TX10/2315Z TN06/2304Z LAST NO AMDS AFT 2218 NEXT 2303
No reported NOTAMs for that airfield.



MET'MAP, your aeronautical weather chart ! - Copyright ORBIFLY December 2007 - Disclaimer

ORBIFLY MET'MAP TEAM :

Programming & Development : Alexandra Zaïnal
Concept & Development : Baudouin d'Aumeries
Co-Development & Prog : Marc-Olivier Méhu
Technical & hardware support : Manuel Goepfert

Contact : metmap@orbifly.com




SOURCES & CREDITS :

   NOAA